createdAt,value
2017-08-21T00:00:20.980Z,0.00
2017-08-21T00:01:20.962Z,0.00
2017-08-21T00:02:20.948Z,0.00
2017-08-21T00:03:20.945Z,0.00
2017-08-21T00:04:20.936Z,0.00
2017-08-21T00:05:20.923Z,0.00
2017-08-21T00:06:20.919Z,0.00
2017-08-21T00:07:20.909Z,0.00
2017-08-21T00:08:20.902Z,0.00
2017-08-21T00:09:20.896Z,0.00
2017-08-21T00:10:20.887Z,0.00
2017-08-21T00:11:20.883Z,0.00
2017-08-21T00:12:20.877Z,0.00
2017-08-21T00:13:20.869Z,0.00
2017-08-21T00:14:20.865Z,0.00
2017-08-21T00:15:20.855Z,0.00
2017-08-21T00:16:20.849Z,0.00
2017-08-21T00:17:20.841Z,0.00
2017-08-21T00:18:20.835Z,0.00
2017-08-21T00:19:20.826Z,0.00
2017-08-21T00:20:20.814Z,0.00
2017-08-21T00:21:20.809Z,0.00
2017-08-21T00:22:20.799Z,0.00
2017-08-21T00:23:20.795Z,0.00
2017-08-21T00:24:20.785Z,0.00
2017-08-21T00:25:20.777Z,0.00
2017-08-21T00:26:20.771Z,0.00
2017-08-21T00:27:20.763Z,0.00
2017-08-21T00:28:20.758Z,0.00
2017-08-21T00:29:20.754Z,0.00
2017-08-21T00:30:20.745Z,0.00
2017-08-21T00:31:20.739Z,0.00
2017-08-21T00:32:20.729Z,0.00
2017-08-21T00:33:20.738Z,0.00
2017-08-21T00:34:20.715Z,0.00
2017-08-21T00:35:20.711Z,0.00
2017-08-21T00:36:20.698Z,0.00
2017-08-21T00:37:20.688Z,0.00
2017-08-21T00:38:20.682Z,0.00
2017-08-21T00:39:20.673Z,0.00
2017-08-21T00:40:20.672Z,0.00
2017-08-21T00:41:20.661Z,0.00
2017-08-21T00:42:20.651Z,0.00
2017-08-21T00:43:20.645Z,0.00
2017-08-21T00:44:20.642Z,0.00
2017-08-21T00:45:20.632Z,0.00
2017-08-21T00:46:20.629Z,0.00
2017-08-21T00:47:20.619Z,0.00
2017-08-21T00:48:20.611Z,0.00
2017-08-21T00:49:20.610Z,0.00
2017-08-21T00:50:20.597Z,0.00
2017-08-21T00:51:20.588Z,0.00
2017-08-21T00:52:20.575Z,0.00
2017-08-21T00:53:20.571Z,0.00
2017-08-21T00:54:20.559Z,0.00
2017-08-21T00:55:20.556Z,0.00
2017-08-21T00:56:20.550Z,0.00
2017-08-21T00:57:20.542Z,0.00
2017-08-21T00:58:20.536Z,0.00
2017-08-21T00:59:20.526Z,0.00
2017-08-21T01:00:20.515Z,0.00
2017-08-21T01:01:20.513Z,0.00
2017-08-21T01:02:20.499Z,0.00
2017-08-21T01:03:20.495Z,0.00
2017-08-21T01:04:20.487Z,0.00
2017-08-21T01:05:20.478Z,0.00
2017-08-21T01:06:20.469Z,0.00
2017-08-21T01:07:20.463Z,0.00
2017-08-21T01:08:20.457Z,0.00
2017-08-21T01:09:20.450Z,0.00
2017-08-21T01:10:20.444Z,0.00
2017-08-21T01:11:20.434Z,0.00
2017-08-21T01:12:20.426Z,0.00
2017-08-21T01:13:20.420Z,0.00
2017-08-21T01:14:20.415Z,0.00
2017-08-21T01:15:20.405Z,0.00
2017-08-21T01:16:20.392Z,0.00
2017-08-21T01:17:20.383Z,0.00
2017-08-21T01:18:20.376Z,0.00
2017-08-21T01:19:20.366Z,0.00
2017-08-21T01:20:20.359Z,0.00
2017-08-21T01:21:20.351Z,0.00
2017-08-21T01:22:20.344Z,0.00
2017-08-21T01:23:20.334Z,0.00
2017-08-21T01:24:20.331Z,0.00
2017-08-21T01:25:20.325Z,0.00
2017-08-21T01:26:20.314Z,0.00
2017-08-21T01:27:20.309Z,0.00
2017-08-21T01:28:20.301Z,0.00
2017-08-21T01:29:20.297Z,0.00
2017-08-21T01:30:20.285Z,0.00
2017-08-21T01:31:20.274Z,0.00
2017-08-21T01:32:20.262Z,0.00
2017-08-21T01:33:20.257Z,0.00
2017-08-21T01:34:20.265Z,0.00
2017-08-21T01:35:20.241Z,0.00
2017-08-21T01:36:20.231Z,0.00
2017-08-21T01:37:20.225Z,0.00
2017-08-21T01:38:20.214Z,0.00
2017-08-21T01:39:20.209Z,0.00
2017-08-21T01:40:20.203Z,0.00
2017-08-21T01:41:20.195Z,0.00
2017-08-21T01:42:20.188Z,0.00
2017-08-21T01:43:20.179Z,0.00
2017-08-21T01:44:20.170Z,0.00
2017-08-21T01:45:20.163Z,0.00
2017-08-21T01:46:20.154Z,0.00
2017-08-21T01:47:20.147Z,0.00
2017-08-21T01:48:20.135Z,0.00
2017-08-21T01:49:20.126Z,0.00
2017-08-21T01:50:20.119Z,0.00
2017-08-21T01:51:20.111Z,0.00
2017-08-21T01:52:20.108Z,0.00
2017-08-21T01:53:20.093Z,0.00
2017-08-21T01:54:20.086Z,0.00
2017-08-21T01:55:20.076Z,0.00
2017-08-21T01:56:20.074Z,0.00
2017-08-21T01:57:20.065Z,0.00
2017-08-21T01:58:20.056Z,0.00
2017-08-21T01:59:20.051Z,0.00
2017-08-21T02:00:20.039Z,0.00
2017-08-21T02:01:20.033Z,0.00
2017-08-21T02:02:20.022Z,0.00
2017-08-21T02:03:20.017Z,0.00
2017-08-21T02:04:20.004Z,0.00
2017-08-21T02:05:19.994Z,0.00
2017-08-21T02:06:19.987Z,0.00
2017-08-21T02:07:19.978Z,0.00
2017-08-21T02:08:19.970Z,0.00
2017-08-21T02:09:19.961Z,0.00
2017-08-21T02:10:19.955Z,0.00
2017-08-21T02:11:19.943Z,0.00
2017-08-21T02:12:19.938Z,0.00
2017-08-21T02:13:19.934Z,0.00
2017-08-21T02:14:19.923Z,0.00
2017-08-21T02:15:19.916Z,0.00
2017-08-21T02:16:19.907Z,0.00
2017-08-21T02:17:19.898Z,0.00
2017-08-21T02:18:19.890Z,0.00
2017-08-21T02:19:19.880Z,0.00
2017-08-21T02:20:19.867Z,0.00
2017-08-21T02:21:19.888Z,0.00
2017-08-21T02:22:19.851Z,0.00
2017-08-21T02:23:19.849Z,0.00
2017-08-21T02:24:19.839Z,0.00
2017-08-21T02:25:19.827Z,0.00
2017-08-21T02:26:19.817Z,0.00
2017-08-21T02:27:19.810Z,0.00
2017-08-21T02:28:19.806Z,0.00
2017-08-21T02:29:19.794Z,0.00
2017-08-21T02:30:19.789Z,0.00
2017-08-21T02:31:19.778Z,0.00
2017-08-21T02:32:19.771Z,0.00
2017-08-21T02:33:19.763Z,0.00
2017-08-21T02:34:19.752Z,0.00
2017-08-21T02:35:19.747Z,0.00
2017-08-21T02:36:19.733Z,0.00
2017-08-21T02:37:19.723Z,0.00
2017-08-21T02:38:19.716Z,0.00
2017-08-21T02:39:19.708Z,0.00
2017-08-21T02:40:19.697Z,0.00
2017-08-21T02:41:19.687Z,0.00
2017-08-21T02:42:19.681Z,0.00
2017-08-21T02:43:19.670Z,0.00
2017-08-21T02:44:19.667Z,0.00
2017-08-21T02:45:19.660Z,0.00
2017-08-21T02:46:19.649Z,0.00
2017-08-21T02:47:19.643Z,0.00
2017-08-21T02:48:19.632Z,0.00
2017-08-21T02:49:19.623Z,0.00
2017-08-21T02:50:19.616Z,0.00
2017-08-21T02:51:19.606Z,0.00
2017-08-21T02:52:19.591Z,0.00
2017-08-21T02:53:19.585Z,0.00
2017-08-21T02:54:19.599Z,0.00
2017-08-21T02:55:19.568Z,0.00
2017-08-21T02:56:19.560Z,0.00
2017-08-21T02:57:19.549Z,0.00
2017-08-21T02:58:19.539Z,0.00
2017-08-21T02:59:19.532Z,0.00
2017-08-21T03:00:19.527Z,0.00
2017-08-21T03:01:19.517Z,0.00
2017-08-21T03:02:19.510Z,0.00
2017-08-21T03:03:19.499Z,0.00
2017-08-21T03:04:19.485Z,0.00
2017-08-21T03:05:19.478Z,0.00
2017-08-21T03:06:19.471Z,0.00
2017-08-21T03:07:19.462Z,0.00
2017-08-21T03:08:19.456Z,0.00
2017-08-21T03:09:19.446Z,0.00
2017-08-21T03:10:19.437Z,0.00
2017-08-21T03:11:19.428Z,0.00
2017-08-21T03:12:19.420Z,0.00
2017-08-21T03:13:19.410Z,0.00
2017-08-21T03:14:19.402Z,0.00
2017-08-21T03:15:19.392Z,0.00
2017-08-21T03:16:19.378Z,0.00
2017-08-21T03:17:19.371Z,0.00
2017-08-21T03:18:19.360Z,0.00
2017-08-21T03:19:19.357Z,0.00
2017-08-21T03:20:19.343Z,0.00
2017-08-21T03:21:19.332Z,0.00
2017-08-21T03:22:19.326Z,0.00
2017-08-21T03:23:19.315Z,0.00
2017-08-21T03:24:19.308Z,0.00
2017-08-21T03:25:19.303Z,0.00
2017-08-21T03:26:19.291Z,0.00
2017-08-21T03:27:19.284Z,0.00
2017-08-21T03:28:19.273Z,0.00
2017-08-21T03:29:19.265Z,0.00
2017-08-21T03:30:19.255Z,0.00
2017-08-21T03:31:19.251Z,0.00
2017-08-21T03:32:19.233Z,0.00
2017-08-21T03:33:19.222Z,0.00
2017-08-21T03:34:19.216Z,0.00
2017-08-21T03:35:19.206Z,0.00
2017-08-21T03:36:19.194Z,0.00
2017-08-21T03:37:19.188Z,0.00
2017-08-21T03:38:19.176Z,0.00
2017-08-21T03:39:19.170Z,0.00
2017-08-21T03:40:19.164Z,0.00
2017-08-21T03:41:19.153Z,0.00
2017-08-21T03:42:19.496Z,0.00
2017-08-21T03:43:19.139Z,0.00
2017-08-21T03:44:19.127Z,0.00
2017-08-21T03:45:19.116Z,0.00
2017-08-21T03:46:19.114Z,0.00
2017-08-21T03:47:19.098Z,0.00
2017-08-21T03:48:19.088Z,0.00
2017-08-21T03:49:19.077Z,0.00
2017-08-21T03:50:19.066Z,0.00
2017-08-21T03:51:19.057Z,0.00
2017-08-21T03:52:19.047Z,0.00
2017-08-21T03:53:19.037Z,0.00
2017-08-21T03:54:19.031Z,0.00
2017-08-21T03:55:19.019Z,4.00
2017-08-21T03:56:19.013Z,4.00
2017-08-21T03:57:19.007Z,4.00
2017-08-21T03:58:18.994Z,0.00
2017-08-21T03:59:18.988Z,4.00
2017-08-21T04:00:18.976Z,4.00
2017-08-21T04:01:18.969Z,4.00
2017-08-21T04:02:18.956Z,4.00
2017-08-21T04:03:18.951Z,8.00
2017-08-21T04:04:18.935Z,8.00
2017-08-21T04:05:18.924Z,8.00
2017-08-21T04:06:18.917Z,12.00
2017-08-21T04:07:19.257Z,12.00
2017-08-21T04:08:18.900Z,16.00
2017-08-21T04:09:18.893Z,16.00
2017-08-21T04:10:18.882Z,16.00
2017-08-21T04:11:18.874Z,20.00
2017-08-21T04:12:18.861Z,24.00
2017-08-21T04:13:18.849Z,28.00
2017-08-21T04:14:18.841Z,32.00
2017-08-21T04:15:18.831Z,40.00
2017-08-21T04:16:18.822Z,44.00
2017-08-21T04:17:18.811Z,48.00
2017-08-21T04:18:18.804Z,52.00
2017-08-21T04:19:18.792Z,60.00
2017-08-21T04:20:18.787Z,64.00
2017-08-21T04:21:18.780Z,72.00
2017-08-21T04:22:18.768Z,84.00
2017-08-21T04:23:18.761Z,92.00
2017-08-21T04:24:18.750Z,104.00
2017-08-21T04:25:18.738Z,108.00
2017-08-21T04:26:18.732Z,120.00
2017-08-21T04:27:18.721Z,128.00
2017-08-21T04:28:18.706Z,136.00
2017-08-21T04:29:18.700Z,144.00
2017-08-21T04:30:18.688Z,160.00
2017-08-21T04:31:18.681Z,172.00
2017-08-21T04:32:18.669Z,188.00
2017-08-21T04:33:18.661Z,208.00
2017-08-21T04:34:18.650Z,232.00
2017-08-21T04:35:18.642Z,256.00
2017-08-21T04:36:18.637Z,276.00
2017-08-21T04:37:18.625Z,300.00
2017-08-21T04:38:18.619Z,320.00
2017-08-21T04:39:18.607Z,344.00
2017-08-21T04:40:18.600Z,372.00
2017-08-21T04:41:18.589Z,392.00
2017-08-21T04:42:18.580Z,420.00
2017-08-21T04:43:18.572Z,448.00
2017-08-21T04:44:18.557Z,484.00
2017-08-21T04:45:18.546Z,516.00
2017-08-21T04:46:18.538Z,548.00
2017-08-21T04:47:18.528Z,584.00
2017-08-21T04:48:18.518Z,616.00
2017-08-21T04:49:18.507Z,652.00
2017-08-21T04:50:18.501Z,688.00
2017-08-21T04:51:18.489Z,716.00
2017-08-21T04:52:18.483Z,748.00
2017-08-21T04:53:18.476Z,784.00
2017-08-21T04:54:18.465Z,820.00
2017-08-21T04:55:18.458Z,864.00
2017-08-21T04:56:18.448Z,900.00
2017-08-21T04:57:18.435Z,936.00
2017-08-21T04:58:18.729Z,972.00
2017-08-21T04:59:18.418Z,1012.00
2017-08-21T05:00:18.406Z,1052.00
2017-08-21T05:01:18.397Z,1096.00
2017-08-21T05:02:18.384Z,1140.00
2017-08-21T05:03:18.378Z,1184.00
2017-08-21T05:04:18.367Z,1236.00
2017-08-21T05:05:18.359Z,1292.00
2017-08-21T05:06:18.348Z,1348.00
2017-08-21T05:07:18.340Z,1416.00
2017-08-21T05:08:18.335Z,1492.00
2017-08-21T05:09:18.324Z,1568.00
2017-08-21T05:10:18.316Z,1648.00
2017-08-21T05:11:18.306Z,1732.00
2017-08-21T05:12:18.290Z,1820.00
2017-08-21T05:13:18.285Z,1908.00
2017-08-21T05:14:18.274Z,1996.00
2017-08-21T05:15:18.266Z,2088.00
2017-08-21T05:16:18.261Z,2172.00
2017-08-21T05:17:18.249Z,2264.00
2017-08-21T05:18:18.243Z,2356.00
2017-08-21T05:19:18.233Z,2448.00
2017-08-21T05:20:18.224Z,2540.00
2017-08-21T05:21:18.214Z,2640.00
2017-08-21T05:22:18.207Z,2804.00
2017-08-21T05:23:18.196Z,3028.00
2017-08-21T05:24:18.182Z,3000.00
2017-08-21T05:25:18.175Z,3384.00
2017-08-21T05:26:18.165Z,3656.00
2017-08-21T05:27:18.159Z,3728.00
2017-08-21T05:28:18.148Z,3756.00
2017-08-21T05:29:18.138Z,3956.00
2017-08-21T05:30:18.131Z,4148.00
2017-08-21T05:31:18.121Z,4284.00
2017-08-21T05:32:18.116Z,4452.00
2017-08-21T05:33:18.110Z,4644.00
2017-08-21T05:34:18.100Z,4848.00
2017-08-21T05:35:18.094Z,4944.00
2017-08-21T05:36:18.082Z,5124.00
2017-08-21T05:37:18.077Z,5280.00
2017-08-21T05:38:18.067Z,5464.00
2017-08-21T05:39:18.062Z,5660.00
2017-08-21T05:40:18.050Z,5760.00
2017-08-21T05:41:18.041Z,5948.00
2017-08-21T05:42:18.036Z,6156.00
2017-08-21T05:43:18.026Z,6376.00
2017-08-21T05:44:18.019Z,6548.00
2017-08-21T05:45:18.014Z,6540.00
2017-08-21T05:46:18.005Z,6676.00
2017-08-21T05:47:18.001Z,6848.00
2017-08-21T05:48:18.000Z,7188.00
2017-08-21T05:49:17.989Z,7300.00
2017-08-21T05:50:17.985Z,7348.00
2017-08-21T05:51:17.976Z,7184.00
2017-08-21T05:52:17.971Z,7472.00
2017-08-21T05:53:17.966Z,7936.00
2017-08-21T05:54:17.961Z,7856.00
2017-08-21T05:55:17.957Z,8124.00
2017-08-21T05:56:17.944Z,7800.00
2017-08-21T05:57:17.939Z,7992.00
2017-08-21T05:58:17.932Z,7860.00
2017-08-21T05:59:17.931Z,7720.00
2017-08-21T06:00:17.924Z,7888.00
2017-08-21T06:01:17.917Z,8032.00
2017-08-21T06:02:17.915Z,8116.00
2017-08-21T06:03:17.908Z,8268.00
2017-08-21T06:04:17.908Z,8360.00
2017-08-21T06:05:17.903Z,7924.00
2017-08-21T06:06:17.899Z,8564.00
2017-08-21T06:07:17.896Z,8724.00
2017-08-21T06:08:17.890Z,9024.00
2017-08-21T06:09:17.888Z,9244.00
2017-08-21T06:10:17.882Z,9444.00
2017-08-21T06:11:17.884Z,9704.00
2017-08-21T06:12:17.870Z,9940.00
2017-08-21T06:13:17.866Z,10064.00
2017-08-21T06:14:17.890Z,10244.00
2017-08-21T06:15:17.860Z,10384.00
2017-08-21T06:16:17.864Z,10604.00
2017-08-21T06:17:17.858Z,10644.00
2017-08-21T06:18:17.856Z,10772.00
2017-08-21T06:19:17.853Z,10860.00
2017-08-21T06:20:17.843Z,11000.00
2017-08-21T06:21:17.844Z,11124.00
2017-08-21T06:22:17.843Z,11104.00
2017-08-21T06:23:17.842Z,11372.00
2017-08-21T06:24:17.837Z,11476.00
2017-08-21T06:25:17.838Z,11592.00
2017-08-21T06:26:17.833Z,11708.00
2017-08-21T06:27:17.840Z,11884.00
2017-08-21T06:28:17.837Z,11980.00
2017-08-21T06:29:17.834Z,12388.00
2017-08-21T06:30:17.833Z,12592.00
2017-08-21T06:31:17.832Z,12716.00
2017-08-21T06:32:17.832Z,12936.00
2017-08-21T06:33:17.836Z,13040.00
2017-08-21T06:34:17.830Z,13204.00
2017-08-21T06:35:17.834Z,13296.00
2017-08-21T06:36:17.828Z,13460.00
2017-08-21T06:37:17.826Z,13612.00
2017-08-21T06:38:17.827Z,13788.00
2017-08-21T06:39:17.826Z,13940.00
2017-08-21T06:40:17.828Z,14068.00
2017-08-21T06:41:17.827Z,14324.00
2017-08-21T06:42:17.829Z,14524.00
2017-08-21T06:43:17.828Z,14724.00
2017-08-21T06:44:17.832Z,14932.00
2017-08-21T06:45:17.835Z,14848.00
2017-08-21T06:46:17.834Z,15328.00
2017-08-21T06:47:17.836Z,15392.00
2017-08-21T06:48:17.838Z,15520.00
2017-08-21T06:49:17.890Z,15712.00
2017-08-21T06:50:17.846Z,15712.00
2017-08-21T06:51:17.840Z,15840.00
2017-08-21T06:52:17.837Z,15808.00
2017-08-21T06:53:17.841Z,16032.00
2017-08-21T06:54:17.839Z,16160.00
2017-08-21T06:55:17.843Z,16256.00
2017-08-21T06:56:17.843Z,16640.00
2017-08-21T06:57:17.848Z,16832.00
2017-08-21T06:58:17.849Z,16800.00
2017-08-21T06:59:17.852Z,16960.00
2017-08-21T07:00:17.859Z,17056.00
2017-08-21T07:01:17.860Z,17248.00
2017-08-21T07:02:17.865Z,17600.00
2017-08-21T07:03:17.868Z,17856.00
2017-08-21T07:04:17.870Z,18208.00
2017-08-21T07:05:17.874Z,18400.00
2017-08-21T07:06:17.874Z,18528.00
2017-08-21T07:07:17.882Z,18688.00
2017-08-21T07:08:17.880Z,18944.00
2017-08-21T07:09:17.881Z,19104.00
2017-08-21T07:10:17.888Z,19360.00
2017-08-21T07:11:17.891Z,19328.00
2017-08-21T07:12:17.896Z,19648.00
2017-08-21T07:13:17.897Z,19328.00
2017-08-21T07:14:17.904Z,19456.00
2017-08-21T07:15:17.908Z,20064.00
2017-08-21T07:16:17.916Z,20608.00
2017-08-21T07:17:17.924Z,20928.00
2017-08-21T07:18:17.926Z,21792.00
2017-08-21T07:19:17.933Z,22624.00
2017-08-21T07:20:17.933Z,23584.00
2017-08-21T07:21:17.937Z,23968.00
2017-08-21T07:22:17.944Z,24416.00
2017-08-21T07:23:17.951Z,24672.00
2017-08-21T07:24:17.957Z,24992.00
2017-08-21T07:25:17.965Z,25408.00
2017-08-21T07:26:17.968Z,25632.00
2017-08-21T07:27:17.976Z,26528.00
2017-08-21T07:28:17.980Z,27136.00
2017-08-21T07:29:17.988Z,28480.00
2017-08-21T07:30:17.992Z,30560.00
2017-08-21T07:31:18.002Z,33792.00
2017-08-21T07:32:18.003Z,38016.00
2017-08-21T07:33:18.008Z,42816.00
2017-08-21T07:34:18.016Z,43520.00
2017-08-21T07:35:18.024Z,43424.00
2017-08-21T07:36:18.028Z,41664.00
2017-08-21T07:37:18.036Z,40256.00
2017-08-21T07:38:18.041Z,40992.00
2017-08-21T07:39:18.053Z,40992.00
2017-08-21T07:40:18.063Z,41280.00
2017-08-21T07:41:18.068Z,42880.00
2017-08-21T07:42:18.087Z,43968.00
2017-08-21T07:43:18.083Z,44160.00
2017-08-21T07:44:18.093Z,45184.00
2017-08-21T07:45:18.100Z,48768.00
2017-08-21T07:46:18.111Z,51424.00
2017-08-21T07:47:18.116Z,56576.00
2017-08-21T07:48:18.119Z,60320.00
2017-08-21T07:49:18.131Z,57984.00
2017-08-21T07:50:18.137Z,59264.00
2017-08-21T07:51:18.147Z,61088.00
2017-08-21T07:52:18.155Z,60448.00
2017-08-21T07:53:18.163Z,60640.00
2017-08-21T07:54:18.172Z,61856.00
2017-08-21T07:55:18.180Z,65216.00
2017-08-21T07:56:18.192Z,62496.00
2017-08-21T07:57:18.204Z,60320.00
2017-08-21T07:58:18.211Z,61408.00
2017-08-21T07:59:18.223Z,60288.00
2017-08-21T08:00:18.228Z,56960.00
2017-08-21T08:01:18.242Z,54560.00
2017-08-21T08:02:18.249Z,51104.00
2017-08-21T08:03:18.259Z,50880.00
2017-08-21T08:04:18.265Z,52384.00
2017-08-21T08:05:18.273Z,51424.00
2017-08-21T08:06:18.286Z,49728.00
2017-08-21T08:07:18.294Z,49504.00
2017-08-21T08:08:18.304Z,51008.00
2017-08-21T08:09:18.617Z,48608.00
2017-08-21T08:10:18.325Z,46496.00
2017-08-21T08:11:18.338Z,46496.00
2017-08-21T08:12:18.351Z,44896.00
2017-08-21T08:13:18.359Z,44544.00
2017-08-21T08:14:18.372Z,43808.00
2017-08-21T08:15:18.382Z,42368.00
2017-08-21T08:16:18.393Z,42432.00
2017-08-21T08:17:18.404Z,42816.00
2017-08-21T08:18:18.416Z,39616.00
2017-08-21T08:19:18.425Z,40128.00
2017-08-21T08:20:18.431Z,41024.00
2017-08-21T08:21:18.447Z,40800.00
2017-08-21T08:22:18.465Z,38208.00
2017-08-21T08:23:18.476Z,38432.00
2017-08-21T08:24:18.484Z,39264.00
2017-08-21T08:25:18.495Z,40384.00
2017-08-21T08:26:18.508Z,40960.00
2017-08-21T08:27:18.518Z,40000.00
2017-08-21T08:28:18.526Z,39136.00
2017-08-21T08:29:18.540Z,39392.00
2017-08-21T08:30:18.549Z,40448.00
2017-08-21T08:31:18.563Z,39808.00
2017-08-21T08:32:18.573Z,38752.00
2017-08-21T08:33:18.588Z,39392.00
2017-08-21T08:34:18.597Z,39168.00
2017-08-21T08:35:18.613Z,38976.00
2017-08-21T08:36:18.629Z,38112.00
2017-08-21T08:37:18.639Z,37344.00
2017-08-21T08:38:18.654Z,36512.00
2017-08-21T08:39:18.665Z,35136.00
2017-08-21T08:40:18.676Z,34208.00
2017-08-21T08:41:18.690Z,35296.00
2017-08-21T08:42:18.702Z,35232.00
2017-08-21T08:43:18.716Z,35968.00
2017-08-21T08:44:18.724Z,36384.00
2017-08-21T08:45:18.734Z,35776.00
2017-08-21T08:46:18.750Z,35616.00
2017-08-21T08:47:18.762Z,35840.00
2017-08-21T08:48:18.775Z,34592.00
2017-08-21T08:49:18.791Z,35328.00
2017-08-21T08:50:18.802Z,37152.00
2017-08-21T08:51:18.814Z,37280.00
2017-08-21T08:52:18.834Z,37472.00
2017-08-21T08:53:18.845Z,38048.00
2017-08-21T08:54:18.857Z,23456.00
2017-08-21T08:55:18.873Z,36032.00
2017-08-21T08:56:18.887Z,24960.00
2017-08-21T08:57:18.898Z,26464.00
2017-08-21T08:58:18.914Z,25216.00
2017-08-21T08:59:18.948Z,34400.00
2017-08-21T09:00:18.934Z,35744.00
2017-08-21T09:01:18.948Z,38976.00
2017-08-21T09:02:18.961Z,38080.00
2017-08-21T09:03:18.976Z,37696.00
2017-08-21T09:04:18.988Z,37472.00
2017-08-21T09:05:19.004Z,38016.00
2017-08-21T09:06:19.016Z,37920.00
2017-08-21T09:07:19.032Z,37888.00
2017-08-21T09:08:19.052Z,38080.00
2017-08-21T09:09:19.061Z,38016.00
2017-08-21T09:10:19.443Z,38368.00
2017-08-21T09:11:19.089Z,38112.00
2017-08-21T09:12:19.118Z,38336.00
2017-08-21T09:13:19.117Z,39200.00
2017-08-21T09:14:19.130Z,39488.00
2017-08-21T09:15:19.145Z,39008.00
2017-08-21T09:16:19.154Z,37984.00
2017-08-21T09:17:19.168Z,38976.00
2017-08-21T09:18:19.184Z,41216.00
2017-08-21T09:19:19.197Z,40960.00
2017-08-21T09:20:19.212Z,39264.00
2017-08-21T09:21:19.226Z,38272.00
2017-08-21T09:22:19.240Z,38976.00
2017-08-21T09:23:19.255Z,39552.00
2017-08-21T09:24:19.272Z,39680.00
2017-08-21T09:25:19.289Z,38720.00
2017-08-21T09:26:19.304Z,37728.00
2017-08-21T09:27:19.319Z,37248.00
2017-08-21T09:28:19.329Z,35904.00
2017-08-21T09:29:19.343Z,18592.00
2017-08-21T09:30:19.360Z,22240.00
2017-08-21T09:31:19.372Z,39008.00
2017-08-21T09:32:19.392Z,24768.00
2017-08-21T09:33:19.407Z,27488.00
2017-08-21T09:34:19.421Z,23584.00
2017-08-21T09:35:19.438Z,36224.00
2017-08-21T09:36:19.449Z,37856.00
2017-08-21T09:37:19.466Z,36384.00
2017-08-21T09:38:19.478Z,21056.00
2017-08-21T09:39:19.494Z,23808.00
2017-08-21T09:40:19.503Z,32480.00
2017-08-21T09:41:19.514Z,32000.00
2017-08-21T09:42:19.530Z,31872.00
2017-08-21T09:43:19.543Z,32928.00
2017-08-21T09:44:19.557Z,32992.00
2017-08-21T09:45:19.571Z,33216.00
2017-08-21T09:46:19.583Z,33536.00
2017-08-21T09:47:19.598Z,33312.00
2017-08-21T09:48:19.615Z,32800.00
2017-08-21T09:49:19.663Z,33056.00
2017-08-21T09:50:19.643Z,32960.00
2017-08-21T09:51:19.662Z,32960.00
2017-08-21T09:52:19.671Z,33056.00
2017-08-21T09:53:19.686Z,33728.00
2017-08-21T09:54:19.701Z,19424.00
2017-08-21T09:55:19.713Z,15216.00
2017-08-21T09:56:19.723Z,14140.00
2017-08-21T09:57:19.739Z,13584.00
2017-08-21T09:58:19.751Z,13172.00
2017-08-21T09:59:19.765Z,13180.00
2017-08-21T10:00:19.779Z,13516.00
2017-08-21T10:01:19.790Z,11140.00
2017-08-21T10:02:19.808Z,13224.00
2017-08-21T10:03:19.816Z,13596.00
2017-08-21T10:04:19.832Z,13804.00
2017-08-21T10:05:19.846Z,14176.00
2017-08-21T10:06:19.855Z,14716.00
2017-08-21T10:07:19.870Z,15904.00
2017-08-21T10:08:19.882Z,34592.00
2017-08-21T10:09:19.904Z,78464.00
2017-08-21T10:10:19.898Z,75392.00
2017-08-21T10:11:19.911Z,72736.00
2017-08-21T10:12:19.917Z,73088.00
2017-08-21T10:13:19.924Z,72128.00
2017-08-21T10:14:19.939Z,70912.00
2017-08-21T10:15:19.945Z,70784.00
2017-08-21T10:16:19.953Z,70912.00
2017-08-21T10:17:19.966Z,69280.00
2017-08-21T10:18:19.976Z,69408.00
2017-08-21T10:19:19.988Z,68032.00
2017-08-21T10:20:20.003Z,68992.00
2017-08-21T10:21:20.012Z,70816.00
2017-08-21T10:22:20.026Z,69536.00
2017-08-21T10:23:20.038Z,67616.00
2017-08-21T10:24:20.047Z,68032.00
2017-08-21T10:25:20.058Z,66560.00
2017-08-21T10:26:20.071Z,66240.00
2017-08-21T10:27:20.082Z,66336.00
2017-08-21T10:28:20.089Z,66656.00
2017-08-21T10:29:20.102Z,65472.00
2017-08-21T10:30:20.135Z,64864.00
2017-08-21T10:31:20.128Z,63552.00
2017-08-21T10:32:20.138Z,59648.00
2017-08-21T10:33:20.153Z,61984.00
2017-08-21T10:34:20.164Z,63584.00
2017-08-21T10:35:20.180Z,63776.00
2017-08-21T10:36:20.197Z,61472.00
2017-08-21T10:37:20.207Z,61664.00
2017-08-21T10:38:20.223Z,59232.00
2017-08-21T10:39:20.235Z,57888.00
2017-08-21T10:40:20.249Z,58144.00
2017-08-21T10:41:20.261Z,57856.00
2017-08-21T10:42:20.282Z,56256.00
2017-08-21T10:43:20.294Z,56416.00
2017-08-21T10:44:20.299Z,56512.00
2017-08-21T10:45:20.315Z,56896.00
2017-08-21T10:46:20.328Z,57568.00
2017-08-21T10:47:20.344Z,57504.00
2017-08-21T10:48:20.359Z,57824.00
2017-08-21T10:49:20.371Z,56192.00
2017-08-21T10:50:20.386Z,56416.00
2017-08-21T10:51:20.400Z,57440.00
2017-08-21T10:52:20.418Z,60160.00
2017-08-21T10:53:20.435Z,61408.00
2017-08-21T10:54:20.448Z,62112.00
2017-08-21T10:55:20.463Z,62336.00
2017-08-21T10:56:20.476Z,64800.00
2017-08-21T10:57:20.493Z,64064.00
2017-08-21T10:58:20.505Z,64480.00
2017-08-21T10:59:20.523Z,64256.00
2017-08-21T11:00:20.538Z,65056.00
2017-08-21T11:01:20.545Z,64896.00
2017-08-21T11:02:20.560Z,65376.00
2017-08-21T11:03:20.574Z,68192.00
2017-08-21T11:04:20.588Z,66144.00
2017-08-21T11:05:20.604Z,66336.00
2017-08-21T11:06:20.618Z,66656.00
2017-08-21T11:07:20.634Z,66272.00
2017-08-21T11:08:20.653Z,65824.00
2017-08-21T11:09:20.674Z,65728.00
2017-08-21T11:10:20.680Z,67552.00
2017-08-21T11:11:20.694Z,67904.00
2017-08-21T11:12:20.710Z,68032.00
2017-08-21T11:13:20.722Z,67904.00
2017-08-21T11:14:20.737Z,70112.00
2017-08-21T11:15:20.750Z,71648.00
2017-08-21T11:16:20.760Z,70304.00
2017-08-21T11:17:20.777Z,71584.00
2017-08-21T11:18:20.788Z,72224.00
2017-08-21T11:19:20.805Z,72800.00
2017-08-21T11:20:20.817Z,72960.00
2017-08-21T11:21:20.831Z,72512.00
2017-08-21T11:22:20.847Z,71808.00
2017-08-21T11:23:20.859Z,73216.00
2017-08-21T11:24:20.877Z,72832.00
2017-08-21T11:25:20.891Z,74912.00
2017-08-21T11:26:20.905Z,62912.00
2017-08-21T11:27:20.920Z,29824.00
2017-08-21T11:28:20.932Z,16296.00
2017-08-21T11:29:20.947Z,15704.00
2017-08-21T11:30:20.958Z,15640.00
2017-08-21T11:31:20.974Z,15544.00
2017-08-21T11:32:20.983Z,15304.00
2017-08-21T11:33:20.991Z,15172.00
2017-08-21T11:34:21.007Z,15256.00
2017-08-21T11:35:21.017Z,15240.00
2017-08-21T11:36:21.033Z,15180.00
2017-08-21T11:37:21.046Z,15252.00
2017-08-21T11:38:21.059Z,15344.00
2017-08-21T11:39:21.068Z,14108.00
2017-08-21T11:40:21.073Z,14760.00
2017-08-21T11:41:21.082Z,14320.00
2017-08-21T11:42:21.093Z,13844.00
2017-08-21T11:43:21.100Z,13684.00
2017-08-21T11:44:21.111Z,13552.00
2017-08-21T11:45:21.118Z,13484.00
2017-08-21T11:46:21.129Z,13528.00
2017-08-21T11:47:21.137Z,13624.00
2017-08-21T11:48:21.148Z,13556.00
2017-08-21T11:49:21.158Z,13524.00
2017-08-21T11:50:21.164Z,13476.00
2017-08-21T11:51:21.174Z,13476.00
2017-08-21T11:52:21.179Z,13400.00
2017-08-21T11:53:21.184Z,13172.00
2017-08-21T11:54:21.194Z,13096.00
2017-08-21T11:55:21.199Z,13072.00
2017-08-21T11:56:21.551Z,13052.00
2017-08-21T11:57:21.208Z,13020.00
2017-08-21T11:58:21.213Z,12956.00
2017-08-21T11:59:21.222Z,12920.00
2017-08-21T12:00:21.225Z,12924.00
2017-08-21T12:01:21.233Z,12852.00
2017-08-21T12:02:21.235Z,12756.00
2017-08-21T12:03:21.246Z,12668.00
2017-08-21T12:04:21.252Z,12628.00
2017-08-21T12:05:21.255Z,12580.00
2017-08-21T12:06:21.264Z,12436.00
2017-08-21T12:07:21.267Z,12500.00
2017-08-21T12:08:21.270Z,12424.00
2017-08-21T12:09:21.282Z,12368.00
2017-08-21T12:10:21.282Z,12236.00
2017-08-21T12:11:21.287Z,12316.00
2017-08-21T12:12:21.288Z,12332.00
2017-08-21T12:13:21.290Z,12304.00
2017-08-21T12:14:21.297Z,12268.00
2017-08-21T12:15:21.300Z,12248.00
2017-08-21T12:16:21.304Z,12268.00
2017-08-21T12:17:21.309Z,12264.00
2017-08-21T12:18:21.316Z,12228.00
2017-08-21T12:19:21.366Z,12236.00